< < Back
Terminal Aerodrome Forecast


Current Version              Previous Versions:   1  2  3  4  5  6  7  8  9  

Terminal Aerodrome Forecast

697
FTUS44 KMRX 251723
TAFCHA
TAF
KCHA 251723Z 2518/2618 18012KT P6SM BKN020 OVC050
     FM251900 20012G19KT P6SM BKN030 BKN060
     FM252300 22008KT P6SM VCTS BKN050CB
     FM260300 28007KT P6SM BKN100
     FM261300 32012KT P6SM BKN100=



Latest METAR

565
SAUS80 KWBC 252300 CCA
MTRCHA
METAR KCHA 252253Z 21012G17KT 10SM BKN035 BKN180 BKN250 24/17 A2960 RMK
AO2 SLP019 T02390172


USA.gov is the U.S. government's official web portal to all federal, state and local government web resources and services.